San Antonio, TX (78266)

4:27 PM CST on January 31, 2015 (GMT -0600)
Garden Ridge | Change Station
CLOSE
Current Station
Personal Weather Station
Location: Garden Ridge, TX
Elevation: 896 ft
Nearby Weather Stations

Elev 896 ft 29.63 °N, 98.30 °W | Updated 2 minutes ago

Rain
Rain
57.1 °F
Feels Like 57.1 °F
N
0.0
Wind Variable Wind from NNE
Gusts 0.0 mph

Today
High -- | Low -- °F
--% Chance of Precip.
Yesterday
High -- | Low -- °F
Precip. -- in
7:23 AM 6:10 PM
Waxing Gibbous, 92% visible
Pressure 29.94 in
Visibility 4.0 miles
Clouds Scattered Clouds 3900 ft
Scattered Clouds 4600 ft
Dew Point 56 °F
Humidity 98%
Rainfall 0.11 in
Snow Depth Not available.
UV 1 out of 12
Pollen 8.20 out of 12
Air Quality Not available.
Flu Activity Not available.
SPECI KRND 312213Z AUTO 04002KT 4SM -RA BR SCT039 SCT046 15/15 A2994 RMK AO2 DZE06RAB06

More Conditions Fewer Conditions

Pressure 29.94 in
Visibility 4.0 miles
Clouds Scattered Clouds 3900 ft
Scattered Clouds 4600 ft
Dew Point 56 °F
Humidity 98%
Rainfall 0.11 in
Snow Depth Not available.
UV 1 out of 12
Pollen 8.20 out of 12
Air Quality Not available.
Flu Activity Not available.
SPECI KRND 312213Z AUTO 04002KT 4SM -RA BR SCT039 SCT046 15/15 A2994 RMK AO2 DZE06RAB06

More Conditions Fewer Conditions

Nowcast | as of 2:36 PM CST on January 31, 2015

Light to moderate rain showers are continuing to slowly push east across the I-35 corridor. Rainfall totals of a trace up to a tenth of an inch. Some patchy fog will also be possible in these locations. Roadways will be slick so use caution when traveling this afternoon and evening.

×

10-Day Weather Forecast

Almanac

Astronomy

Jan. 31, 2015 Rise Set
Actual Time
Civil Twilight
Nautical Twilight
Astronomical Twilight
Moon
Length of Visible Light
Length of Day
Tomorrow will be .
, % of the Moon is Illuminated

Today's Extremes

State Highs State Lows

Community

WunderPhotos

Upload Photos

1,792,225 photos uploaded!

WunderBlogs® & News

Nearby

Air Quality

  Air Quality AQ Index Pollutant
Not available.

Snow Depth

Station Depth Elevation

Earthquake Activity

City Distance Mag. Time & Date
Minimum magnitude displayed is 2.5.

Coastal Water Temperatures

Place Temperature

Nearby Weather Stations